createdAt,value
2018-12-21T00:03:00.786Z,17.67
2018-12-21T00:08:55.786Z,15.69
2018-12-21T00:14:50.798Z,17.62
2018-12-21T00:20:45.820Z,15.41
2018-12-21T00:26:40.815Z,12.23
2018-12-21T00:32:35.803Z,14.1
2018-12-21T00:38:30.808Z,12.31
2018-12-21T00:44:25.871Z,11.85
2018-12-21T00:50:20.837Z,9.19
2018-12-21T00:56:15.875Z,9.5
2018-12-21T01:02:10.830Z,9.3
2018-12-21T01:08:05.852Z,9.75
2018-12-21T01:14:00.870Z,13.64
2018-12-21T01:19:55.846Z,14.97
2018-12-21T01:25:50.859Z,14.64
2018-12-21T01:31:45.856Z,13.93
2018-12-21T01:37:40.881Z,13.35
2018-12-21T01:43:35.991Z,10.35
2018-12-21T01:49:30.846Z,11.34
2018-12-21T01:55:25.877Z,10.23
2018-12-21T02:01:20.852Z,12.3
2018-12-21T02:07:15.879Z,13.35
2018-12-21T02:13:10.901Z,16.17
2018-12-21T02:19:05.881Z,16.47
2018-12-21T02:25:00.908Z,17.79
2018-12-21T02:30:55.850Z,18.01
2018-12-21T02:36:50.890Z,15.63
2018-12-21T02:42:45.929Z,15.09
2018-12-21T02:48:40.876Z,15.78
2018-12-21T02:54:35.881Z,15.9
2018-12-21T03:00:30.928Z,17.98
2018-12-21T03:06:25.894Z,21.19
2018-12-21T03:12:20.911Z,21.07
2018-12-21T03:18:15.969Z,21.05
2018-12-21T03:24:10.902Z,20.22
2018-12-21T03:30:05.925Z,20.17
2018-12-21T03:36:00.890Z,19.37
2018-12-21T03:41:55.922Z,19.43
2018-12-21T03:47:50.945Z,19.79
2018-12-21T03:53:46.039Z,18.98
2018-12-21T03:59:40.942Z,18.77
2018-12-21T04:05:35.922Z,19.26
2018-12-21T04:11:30.917Z,20.89
2018-12-21T04:17:25.941Z,64.27
2018-12-21T04:23:21.059Z,18.97
2018-12-21T04:29:15.938Z,19.9
2018-12-21T04:35:10.927Z,19.5
2018-12-21T04:41:05.952Z,22.42
2018-12-21T04:47:00.953Z,21.69
2018-12-21T04:52:55.985Z,20.07
2018-12-21T04:58:50.947Z,20.47
2018-12-21T05:04:45.979Z,19.4
2018-12-21T05:10:40.947Z,19.4
2018-12-21T05:16:35.971Z,18.48
2018-12-21T05:22:30.993Z,19.05
2018-12-21T05:28:25.959Z,18.95
2018-12-21T05:34:21.017Z,19.97
2018-12-21T05:40:15.984Z,21
2018-12-21T05:46:10.995Z,20.5
2018-12-21T05:52:05.991Z,21.83
2018-12-21T05:58:00.983Z,21.27
2018-12-21T06:03:56.041Z,25.12
2018-12-21T06:09:51.012Z,22.39
2018-12-21T06:15:46.005Z,19.55
2018-12-21T06:21:40.986Z,18.48
2018-12-21T06:27:36.014Z,19.62
2018-12-21T06:33:31.020Z,19.43
2018-12-21T06:39:25.999Z,25.84
2018-12-21T06:45:21.008Z,35.27
2018-12-21T06:51:16.043Z,23.6
2018-12-21T06:57:11.090Z,21.3
2018-12-21T07:03:06.018Z,22.25
2018-12-21T07:09:00.998Z,21.32
2018-12-21T07:14:56.025Z,23.14
2018-12-21T07:20:51.023Z,21.04
2018-12-21T07:26:46.009Z,18.44
2018-12-21T07:32:41.054Z,19.88
2018-12-21T07:38:36.064Z,18.62
2018-12-21T07:44:31.043Z,21.86
2018-12-21T07:50:26.062Z,28.36
2018-12-21T07:56:21.097Z,24.4
2018-12-21T08:02:16.091Z,23.38
2018-12-21T08:08:11.056Z,23.14
2018-12-21T08:14:06.038Z,22.65
2018-12-21T08:20:01.057Z,25.24
2018-12-21T08:25:56.080Z,28.99
2018-12-21T08:31:51.068Z,28.47
2018-12-21T08:37:46.113Z,26.25
2018-12-21T08:43:41.054Z,25.3
2018-12-21T08:49:36.061Z,25.32
2018-12-21T08:55:31.066Z,34.23
2018-12-21T09:01:26.062Z,31.53
2018-12-21T09:07:21.058Z,35.77
2018-12-21T09:13:16.069Z,41.27
2018-12-21T09:19:11.067Z,37.76
2018-12-21T09:25:06.060Z,79.4
2018-12-21T09:31:01.082Z,41.9
2018-12-21T09:36:56.140Z,36.93
2018-12-21T09:42:51.100Z,32.95
2018-12-21T09:48:46.116Z,34.03
2018-12-21T09:54:41.122Z,34.79
2018-12-21T10:00:36.105Z,31.09
2018-12-21T10:06:31.111Z,26.39
2018-12-21T10:12:26.108Z,27.85
2018-12-21T10:18:21.128Z,26.56
2018-12-21T10:24:18.561Z,26.24
2018-12-21T10:30:11.112Z,26.91
2018-12-21T10:36:06.102Z,24.25
2018-12-21T10:42:01.110Z,25.4
2018-12-21T10:47:56.133Z,29.5
2018-12-21T10:53:51.127Z,43.06
2018-12-21T10:59:46.163Z,48.77
2018-12-21T11:05:41.146Z,41.95
2018-12-21T11:11:36.122Z,41.5
2018-12-21T11:17:31.125Z,48.87
2018-12-21T11:23:26.135Z,50.87
2018-12-21T11:29:21.132Z,46.97
2018-12-21T11:35:16.169Z,40.35
2018-12-21T11:41:11.173Z,37.27
2018-12-21T11:47:06.177Z,38.43
2018-12-21T11:53:01.144Z,41.75
2018-12-21T11:58:56.155Z,34.82
2018-12-21T12:04:51.180Z,36.72
2018-12-21T12:10:46.216Z,33.11
2018-12-21T12:16:41.179Z,27
2018-12-21T12:22:36.174Z,28.36
2018-12-21T12:28:31.179Z,27.06
2018-12-21T12:34:26.193Z,28.99
2018-12-21T12:40:21.221Z,28.37
2018-12-21T12:46:16.185Z,26.47
2018-12-21T12:52:11.192Z,27.17
2018-12-21T12:58:06.173Z,27.13
2018-12-21T13:04:01.186Z,27.08
2018-12-21T13:09:56.208Z,22.72
2018-12-21T13:15:51.172Z,26
2018-12-21T13:21:46.220Z,23.06
2018-12-21T13:27:41.239Z,22.73
2018-12-21T13:33:36.215Z,26.16
2018-12-21T13:39:31.210Z,26.25
2018-12-21T13:45:26.196Z,23.76
2018-12-21T13:51:21.232Z,22.67
2018-12-21T13:57:16.230Z,22.53
2018-12-21T14:03:11.235Z,22.93
2018-12-21T14:09:06.224Z,23.28
2018-12-21T14:15:01.226Z,24.95
2018-12-21T14:20:56.237Z,25.33
2018-12-21T14:26:51.217Z,24.62
2018-12-21T14:32:46.258Z,24.74
2018-12-21T14:38:41.249Z,26.92
2018-12-21T14:44:36.367Z,25.18
2018-12-21T14:50:31.280Z,28.8
2018-12-21T14:56:26.280Z,20.35
2018-12-21T15:02:21.283Z,18.45
2018-12-21T15:08:16.259Z,17.32
2018-12-21T15:14:11.284Z,16.02
2018-12-21T15:20:06.259Z,17.56
2018-12-21T15:26:01.326Z,16.5
2018-12-21T15:31:56.312Z,17.6
2018-12-21T15:37:51.286Z,20.71
2018-12-21T15:43:46.269Z,15.72
2018-12-21T15:49:41.313Z,15.4
2018-12-21T15:55:36.295Z,14.07
2018-12-21T16:01:36.700Z,11.16
2018-12-21T16:07:26.331Z,9.76
2018-12-21T16:13:21.303Z,11.44
2018-12-21T16:19:16.290Z,13.16
2018-12-21T16:25:11.303Z,13.02
2018-12-21T16:31:06.308Z,12.59
2018-12-21T16:37:01.308Z,12.56
2018-12-21T16:42:56.324Z,12.25
2018-12-21T16:48:51.289Z,15.77
2018-12-21T16:54:46.364Z,16.88
2018-12-21T17:00:41.336Z,15.87
2018-12-21T17:06:37.176Z,13.17
2018-12-21T17:12:31.338Z,9.8
2018-12-21T17:18:26.333Z,9.89
2018-12-21T17:24:21.346Z,15.07
2018-12-21T17:30:16.335Z,13.16
2018-12-21T17:36:11.322Z,12.99
2018-12-21T17:42:06.339Z,10.87
2018-12-21T17:48:01.373Z,10.92
2018-12-21T17:53:56.346Z,13.57
2018-12-21T17:59:51.343Z,19.43
2018-12-21T18:05:46.360Z,14.83
2018-12-21T18:11:41.367Z,11.48
2018-12-21T18:17:36.370Z,11.57
2018-12-21T18:23:31.328Z,15.1
2018-12-21T18:29:26.343Z,12.44
2018-12-21T18:35:21.443Z,12.5
2018-12-21T18:41:16.367Z,13.35
2018-12-21T18:47:11.365Z,16.96
2018-12-21T18:53:06.404Z,16.49
2018-12-21T18:59:01.376Z,15.58
2018-12-21T19:04:56.428Z,13.37
2018-12-21T19:10:51.377Z,11.58
2018-12-21T19:16:46.380Z,7.93
2018-12-21T19:22:41.392Z,8.3
2018-12-21T19:28:36.439Z,5.5
2018-12-21T19:34:31.445Z,4.89
2018-12-21T19:40:26.423Z,3.48
2018-12-21T19:46:21.420Z,3.36
2018-12-21T19:52:16.416Z,3.5
2018-12-21T19:58:11.423Z,4.78
2018-12-21T20:04:06.449Z,3.13
2018-12-21T20:10:01.409Z,3.79
2018-12-21T20:15:56.405Z,3.64
2018-12-21T20:21:51.488Z,2.83
2018-12-21T20:27:46.431Z,5.01
2018-12-21T20:33:41.421Z,3.04
2018-12-21T20:39:36.424Z,5.12
2018-12-21T20:45:31.428Z,6.51
2018-12-21T20:51:26.440Z,4.46
2018-12-21T20:57:21.932Z,2.8
2018-12-21T21:03:16.450Z,8.19
2018-12-21T21:09:11.469Z,8.03
2018-12-21T21:15:06.427Z,5.61
2018-12-21T21:21:01.450Z,3.58
2018-12-21T21:26:56.469Z,7.74
2018-12-21T21:32:51.456Z,5.91
2018-12-21T21:38:46.470Z,7.52
2018-12-21T21:44:41.464Z,4.17
2018-12-21T21:50:36.459Z,4.37
2018-12-21T21:56:31.471Z,2.89
2018-12-21T22:02:26.514Z,2.36
2018-12-21T22:08:21.475Z,3.08
2018-12-21T22:14:16.463Z,3.24
2018-12-21T22:20:11.469Z,3.47
2018-12-21T22:26:06.488Z,3.75
2018-12-21T22:32:01.489Z,5.65
2018-12-21T22:37:56.512Z,6.13
2018-12-21T22:43:51.511Z,2.53
2018-12-21T22:49:46.503Z,5.51
2018-12-21T22:55:41.486Z,5.76
2018-12-21T23:01:36.487Z,3.38
2018-12-21T23:07:31.495Z,3.17
2018-12-21T23:13:26.554Z,2.07
2018-12-21T23:19:21.508Z,3.39
2018-12-21T23:25:16.501Z,1.47
2018-12-21T23:31:11.570Z,2.26
2018-12-21T23:37:06.513Z,3.38
2018-12-21T23:43:01.575Z,5.42
2018-12-21T23:48:56.542Z,2.91
2018-12-21T23:54:51.522Z,2.95
